sensor_id;sensor_type;location;lat;lon;timestamp;pressure;altitude;pressure_sealevel;temperature;humidity
32083;BME280;18597;48.328;7.932;2023-03-18T00:00:06;99141.22;;;7.48;100.00
32083;BME280;18597;48.328;7.932;2023-03-18T00:02:37;99129.25;;;7.32;100.00
32083;BME280;18597;48.328;7.932;2023-03-18T00:05:05;99129.16;;;7.33;100.00
32083;BME280;18597;48.328;7.932;2023-03-18T00:07:33;99131.94;;;7.20;100.00
32083;BME280;18597;48.328;7.932;2023-03-18T00:10:01;99131.59;;;7.14;100.00
32083;BME280;18597;48.328;7.932;2023-03-18T00:12:28;99138.69;;;7.36;100.00
32083;BME280;18597;48.328;7.932;2023-03-18T00:14:54;99140.72;;;7.32;100.00
32083;BME280;18597;48.328;7.932;2023-03-18T00:17:20;99146.91;;;7.44;100.00
32083;BME280;18597;48.328;7.932;2023-03-18T00:19:46;99140.47;;;7.46;100.00
32083;BME280;18597;48.328;7.932;2023-03-18T00:22:12;99131.22;;;7.41;100.00
32083;BME280;18597;48.328;7.932;2023-03-18T00:24:39;99133.38;;;7.24;100.00
32083;BME280;18597;48.328;7.932;2023-03-18T00:27:05;99137.63;;;7.27;100.00
32083;BME280;18597;48.328;7.932;2023-03-18T00:29:31;99132.16;;;7.17;100.00
32083;BME280;18597;48.328;7.932;2023-03-18T00:31:57;99129.19;;;7.11;100.00
32083;BME280;18597;48.328;7.932;2023-03-18T00:34:24;99132.56;;;7.13;100.00
32083;BME280;18597;48.328;7.932;2023-03-18T00:36:50;99142.34;;;6.90;100.00
32083;BME280;18597;48.328;7.932;2023-03-18T00:39:22;99145.34;;;6.85;100.00
32083;BME280;18597;48.328;7.932;2023-03-18T00:41:54;99151.50;;;6.86;100.00
32083;BME280;18597;48.328;7.932;2023-03-18T00:44:20;99151.63;;;6.73;100.00
32083;BME280;18597;48.328;7.932;2023-03-18T00:46:46;99158.00;;;6.71;100.00
32083;BME280;18597;48.328;7.932;2023-03-18T00:49:12;99157.97;;;6.59;100.00
32083;BME280;18597;48.328;7.932;2023-03-18T00:51:39;99160.88;;;6.79;100.00
32083;BME280;18597;48.328;7.932;2023-03-18T00:54:09;99160.31;;;6.75;100.00
32083;BME280;18597;48.328;7.932;2023-03-18T00:56:36;99162.31;;;6.60;100.00
32083;BME280;18597;48.328;7.932;2023-03-18T00:59:02;99162.66;;;6.56;100.00
32083;BME280;18597;48.328;7.932;2023-03-18T01:01:29;99155.31;;;6.59;100.00
32083;BME280;18597;48.328;7.932;2023-03-18T01:03:56;99155.13;;;6.85;100.00
32083;BME280;18597;48.328;7.932;2023-03-18T01:06:27;99151.75;;;7.05;100.00
32083;BME280;18597;48.328;7.932;2023-03-18T01:08:54;99155.00;;;7.20;100.00
32083;BME280;18597;48.328;7.932;2023-03-18T01:11:22;99145.00;;;7.12;100.00
32083;BME280;18597;48.328;7.932;2023-03-18T01:13:48;99149.22;;;7.15;100.00
32083;BME280;18597;48.328;7.932;2023-03-18T01:16:15;99151.88;;;7.15;100.00
32083;BME280;18597;48.328;7.932;2023-03-18T01:18:42;99156.19;;;6.93;100.00
32083;BME280;18597;48.328;7.932;2023-03-18T01:21:09;99153.06;;;6.77;100.00
32083;BME280;18597;48.328;7.932;2023-03-18T01:23:37;99150.53;;;6.87;100.00
32083;BME280;18597;48.328;7.932;2023-03-18T01:26:04;99149.22;;;6.81;100.00
32083;BME280;18597;48.328;7.932;2023-03-18T01:28:30;99149.22;;;6.81;100.00
32083;BME280;18597;48.328;7.932;2023-03-18T01:30:57;99150.78;;;6.73;100.00
32083;BME280;18597;48.328;7.932;2023-03-18T01:33:24;99147.50;;;6.58;100.00
32083;BME280;18597;48.328;7.932;2023-03-18T01:35:56;99140.47;;;6.46;100.00
32083;BME280;18597;48.328;7.932;2023-03-18T01:38:24;99140.97;;;6.51;100.00
32083;BME280;18597;48.328;7.932;2023-03-18T01:40:50;99133.94;;;6.50;100.00
32083;BME280;18597;48.328;7.932;2023-03-18T01:43:22;99135.16;;;6.46;100.00
32083;BME280;18597;48.328;7.932;2023-03-18T01:45:53;99132.84;;;6.41;100.00
32083;BME280;18597;48.328;7.932;2023-03-18T01:48:23;99138.06;;;6.43;100.00
32083;BME280;18597;48.328;7.932;2023-03-18T01:50:57;99130.56;;;6.36;100.00
32083;BME280;18597;48.328;7.932;2023-03-18T01:53:28;99140.31;;;6.36;100.00
32083;BME280;18597;48.328;7.932;2023-03-18T01:55:57;99140.41;;;6.34;100.00
32083;BME280;18597;48.328;7.932;2023-03-18T01:58:33;99141.28;;;6.35;100.00
32083;BME280;18597;48.328;7.932;2023-03-18T02:01:08;99145.25;;;6.40;100.00
32083;BME280;18597;48.328;7.932;2023-03-18T02:03:40;99141.47;;;6.67;100.00
32083;BME280;18597;48.328;7.932;2023-03-18T02:06:07;99139.88;;;6.53;100.00
32083;BME280;18597;48.328;7.932;2023-03-18T02:08:36;99135.91;;;6.70;100.00
32083;BME280;18597;48.328;7.932;2023-03-18T02:11:03;99138.09;;;6.65;100.00
32083;BME280;18597;48.328;7.932;2023-03-18T02:13:28;99143.03;;;6.58;100.00
32083;BME280;18597;48.328;7.932;2023-03-18T02:16:03;99137.84;;;6.68;100.00
32083;BME280;18597;48.328;7.932;2023-03-18T02:18:37;99137.09;;;6.55;100.00
32083;BME280;18597;48.328;7.932;2023-03-18T02:27:46;99143.13;;;6.57;100.00
32083;BME280;18597;48.328;7.932;2023-03-18T02:30:22;99135.88;;;6.48;100.00
32083;BME280;18597;48.328;7.932;2023-03-18T02:32:51;99132.63;;;6.55;100.00
32083;BME280;18597;48.328;7.932;2023-03-18T02:35:17;99141.44;;;6.45;100.00
32083;BME280;18597;48.328;7.932;2023-03-18T02:37:43;99130.56;;;6.36;100.00
32083;BME280;18597;48.328;7.932;2023-03-18T02:40:32;99133.00;;;6.51;100.00
32083;BME280;18597;48.328;7.932;2023-03-18T02:43:21;99131.28;;;6.38;100.00
32083;BME280;18597;48.328;7.932;2023-03-18T02:46:30;99128.13;;;6.33;100.00
32083;BME280;18597;48.328;7.932;2023-03-18T02:49:00;99127.78;;;6.38;100.00
32083;BME280;18597;48.328;7.932;2023-03-18T02:51:27;99131.66;;;6.45;100.00
32083;BME280;18597;48.328;7.932;2023-03-18T02:54:00;99131.28;;;6.50;100.00
32083;BME280;18597;48.328;7.932;2023-03-18T02:56:28;99130.97;;;6.65;100.00
32083;BME280;18597;48.328;7.932;2023-03-18T02:58:54;99136.63;;;6.61;100.00
32083;BME280;18597;48.328;7.932;2023-03-18T03:01:20;99142.13;;;6.47;100.00
32083;BME280;18597;48.328;7.932;2023-03-18T03:03:47;99139.63;;;6.45;100.00
32083;BME280;18597;48.328;7.932;2023-03-18T03:06:13;99147.94;;;6.52;100.00
32083;BME280;18597;48.328;7.932;2023-03-18T03:08:40;99143.75;;;6.72;100.00
32083;BME280;18597;48.328;7.932;2023-03-18T03:11:07;99152.03;;;6.56;100.00
32083;BME280;18597;48.328;7.932;2023-03-18T03:13:34;99150.63;;;6.63;100.00
32083;BME280;18597;48.328;7.932;2023-03-18T03:16:00;99143.41;;;6.65;100.00
32083;BME280;18597;48.328;7.932;2023-03-18T03:18:26;99144.59;;;6.72;100.00
32083;BME280;18597;48.328;7.932;2023-03-18T03:20:53;99151.13;;;6.79;100.00
32083;BME280;18597;48.328;7.932;2023-03-18T03:23:18;99149.34;;;6.91;100.00
32083;BME280;18597;48.328;7.932;2023-03-18T03:25:44;99148.72;;;6.87;100.00
32083;BME280;18597;48.328;7.932;2023-03-18T03:28:12;99150.06;;;6.82;100.00
32083;BME280;18597;48.328;7.932;2023-03-18T03:30:39;99146.06;;;6.87;100.00
32083;BME280;18597;48.328;7.932;2023-03-18T03:33:05;99140.03;;;7.08;100.00
32083;BME280;18597;48.328;7.932;2023-03-18T03:35:31;99147.03;;;7.20;100.00
32083;BME280;18597;48.328;7.932;2023-03-18T03:37:58;99148.97;;;7.29;100.00
32083;BME280;18597;48.328;7.932;2023-03-18T03:40:24;99143.66;;;7.29;100.00
32083;BME280;18597;48.328;7.932;2023-03-18T03:42:51;99144.63;;;7.28;100.00
32083;BME280;18597;48.328;7.932;2023-03-18T03:45:17;99148.00;;;7.30;100.00
32083;BME280;18597;48.328;7.932;2023-03-18T03:47:43;99150.53;;;7.32;100.00
32083;BME280;18597;48.328;7.932;2023-03-18T03:50:12;99152.22;;;7.10;100.00
32083;BME280;18597;48.328;7.932;2023-03-18T03:52:38;99143.91;;;6.92;100.00
32083;BME280;18597;48.328;7.932;2023-03-18T03:55:07;99136.91;;;6.80;100.00
32083;BME280;18597;48.328;7.932;2023-03-18T03:57:34;99141.13;;;6.83;100.00
32083;BME280;18597;48.328;7.932;2023-03-18T04:00:01;99139.63;;;6.56;100.00
32083;BME280;18597;48.328;7.932;2023-03-18T04:02:26;99141.63;;;6.42;100.00
32083;BME280;18597;48.328;7.932;2023-03-18T04:04:53;99152.25;;;6.42;100.00
32083;BME280;18597;48.328;7.932;2023-03-18T04:07:19;99152.56;;;6.26;100.00
32083;BME280;18597;48.328;7.932;2023-03-18T04:09:45;99159.03;;;6.10;100.00
32083;BME280;18597;48.328;7.932;2023-03-18T04:12:12;99153.81;;;5.98;100.00
32083;BME280;18597;48.328;7.932;2023-03-18T04:14:38;99157.31;;;5.85;100.00
32083;BME280;18597;48.328;7.932;2023-03-18T04:17:04;99165.97;;;5.76;100.00
32083;BME280;18597;48.328;7.932;2023-03-18T04:19:30;99165.31;;;5.73;100.00
32083;BME280;18597;48.328;7.932;2023-03-18T04:21:56;99160.69;;;5.64;100.00
32083;BME280;18597;48.328;7.932;2023-03-18T04:24:22;99163.03;;;5.68;100.00
32083;BME280;18597;48.328;7.932;2023-03-18T04:26:49;99165.00;;;5.77;100.00
32083;BME280;18597;48.328;7.932;2023-03-18T04:29:14;99157.69;;;6.05;100.00
32083;BME280;18597;48.328;7.932;2023-03-18T04:31:40;99157.31;;;5.85;100.00
32083;BME280;18597;48.328;7.932;2023-03-18T04:34:07;99153.16;;;5.94;100.00
32083;BME280;18597;48.328;7.932;2023-03-18T04:36:33;99162.91;;;5.70;100.00
32083;BME280;18597;48.328;7.932;2023-03-18T04:38:59;99163.16;;;5.54;100.00
32083;BME280;18597;48.328;7.932;2023-03-18T04:41:25;99165.19;;;5.50;100.00
32083;BME280;18597;48.328;7.932;2023-03-18T04:43:51;99166.50;;;5.45;100.00
32083;BME280;18597;48.328;7.932;2023-03-18T04:46:16;99167.13;;;5.36;100.00
32083;BME280;18597;48.328;7.932;2023-03-18T04:48:43;99173.59;;;5.32;100.00
32083;BME280;18597;48.328;7.932;2023-03-18T04:51:09;99172.06;;;5.16;100.00
32083;BME280;18597;48.328;7.932;2023-03-18T04:53:36;99177.88;;;5.09;100.00
32083;BME280;18597;48.328;7.932;2023-03-18T04:56:02;99171.22;;;5.03;100.00
32083;BME280;18597;48.328;7.932;2023-03-18T04:58:29;99174.81;;;4.89;100.00
32083;BME280;18597;48.328;7.932;2023-03-18T05:00:55;99180.00;;;4.91;100.00
32083;BME280;18597;48.328;7.932;2023-03-18T05:03:21;99180.44;;;4.85;100.00
32083;BME280;18597;48.328;7.932;2023-03-18T05:05:48;99172.81;;;4.93;100.00
32083;BME280;18597;48.328;7.932;2023-03-18T05:08:14;99169.31;;;4.92;100.00
32083;BME280;18597;48.328;7.932;2023-03-18T05:10:41;99179.50;;;4.86;100.00
32083;BME280;18597;48.328;7.932;2023-03-18T05:13:07;99170.78;;;4.96;100.00
32083;BME280;18597;48.328;7.932;2023-03-18T05:15:34;99181.19;;;4.99;100.00
32083;BME280;18597;48.328;7.932;2023-03-18T05:18:00;99171.00;;;4.93;100.00
32083;BME280;18597;48.328;7.932;2023-03-18T05:20:26;99178.22;;;4.91;100.00
32083;BME280;18597;48.328;7.932;2023-03-18T05:22:53;99178.94;;;5.06;100.00
32083;BME280;18597;48.328;7.932;2023-03-18T05:25:20;99176.63;;;4.89;100.00
32083;BME280;18597;48.328;7.932;2023-03-18T05:27:46;99174.09;;;4.87;100.00
32083;BME280;18597;48.328;7.932;2023-03-18T05:30:13;99170.56;;;5.12;100.00
32083;BME280;18597;48.328;7.932;2023-03-18T05:32:41;99179.25;;;5.01;100.00
32083;BME280;18597;48.328;7.932;2023-03-18T05:35:08;99179.38;;;4.87;100.00
32083;BME280;18597;48.328;7.932;2023-03-18T05:37:35;99174.69;;;5.16;100.00
32083;BME280;18597;48.328;7.932;2023-03-18T05:40:03;99177.00;;;5.21;100.00
32083;BME280;18597;48.328;7.932;2023-03-18T05:42:29;99177.53;;;5.26;100.00
32083;BME280;18597;48.328;7.932;2023-03-18T05:44:55;99180.09;;;5.02;100.00
32083;BME280;18597;48.328;7.932;2023-03-18T05:47:22;99180.94;;;4.90;100.00
32083;BME280;18597;48.328;7.932;2023-03-18T05:49:48;99176.19;;;5.08;100.00
32083;BME280;18597;48.328;7.932;2023-03-18T05:52:14;99178.84;;;5.08;100.00
32083;BME280;18597;48.328;7.932;2023-03-18T05:54:42;99179.66;;;5.21;100.00
32083;BME280;18597;48.328;7.932;2023-03-18T05:57:08;99178.50;;;5.12;100.00
32083;BME280;18597;48.328;7.932;2023-03-18T05:59:34;99184.94;;;5.34;100.00
32083;BME280;18597;48.328;7.932;2023-03-18T06:02:00;99188.25;;;5.24;100.00
32083;BME280;18597;48.328;7.932;2023-03-18T06:04:26;99186.84;;;5.44;100.00
32083;BME280;18597;48.328;7.932;2023-03-18T06:06:53;99192.75;;;5.35;100.00
32083;BME280;18597;48.328;7.932;2023-03-18T06:09:19;99192.22;;;5.43;100.00
32083;BME280;18597;48.328;7.932;2023-03-18T06:11:47;99199.19;;;5.56;100.00
32083;BME280;18597;48.328;7.932;2023-03-18T06:14:13;99199.19;;;5.56;100.00
32083;BME280;18597;48.328;7.932;2023-03-18T06:16:40;99200.13;;;5.68;100.00
32083;BME280;18597;48.328;7.932;2023-03-18T06:19:06;99193.84;;;6.06;100.00
32083;BME280;18597;48.328;7.932;2023-03-18T06:21:33;99204.28;;;6.20;100.00
32083;BME280;18597;48.328;7.932;2023-03-18T06:24:00;99205.91;;;6.69;100.00
32083;BME280;18597;48.328;7.932;2023-03-18T06:26:27;99207.22;;;8.30;100.00
32083;BME280;18597;48.328;7.932;2023-03-18T06:28:53;99187.69;;;10.53;89.10
32083;BME280;18597;48.328;7.932;2023-03-18T06:31:19;99204.47;;;11.76;71.64
32083;BME280;18597;48.328;7.932;2023-03-18T06:33:46;99196.66;;;13.59;62.04
32083;BME280;18597;48.328;7.932;2023-03-18T06:36:12;99197.91;;;15.21;53.83
32083;BME280;18597;48.328;7.932;2023-03-18T06:38:41;99198.69;;;15.94;46.93
32083;BME280;18597;48.328;7.932;2023-03-18T06:41:07;99203.56;;;16.98;45.16
32083;BME280;18597;48.328;7.932;2023-03-18T06:43:34;99198.09;;;19.17;40.79
32083;BME280;18597;48.328;7.932;2023-03-18T06:46:00;99198.78;;;19.25;39.63
32083;BME280;18597;48.328;7.932;2023-03-18T06:48:25;99196.97;;;20.89;36.75
32083;BME280;18597;48.328;7.932;2023-03-18T06:50:52;99193.50;;;22.45;34.63
32083;BME280;18597;48.328;7.932;2023-03-18T06:53:19;99199.34;;;24.09;32.49
32083;BME280;18597;48.328;7.932;2023-03-18T06:55:44;99185.84;;;25.28;28.78
32083;BME280;18597;48.328;7.932;2023-03-18T06:58:10;99192.00;;;25.94;28.79
32083;BME280;18597;48.328;7.932;2023-03-18T07:00:36;99187.19;;;26.87;28.01
32083;BME280;18597;48.328;7.932;2023-03-18T07:03:02;99185.44;;;26.80;25.06
32083;BME280;18597;48.328;7.932;2023-03-18T07:05:29;99182.97;;;25.70;26.32
32083;BME280;18597;48.328;7.932;2023-03-18T07:07:55;99184.31;;;25.32;28.22
32083;BME280;18597;48.328;7.932;2023-03-18T07:10:25;99190.34;;;25.69;27.68
32083;BME280;18597;48.328;7.932;2023-03-18T07:12:53;99186.47;;;26.91;25.56
32083;BME280;18597;48.328;7.932;2023-03-18T07:15:21;99198.28;;;28.25;24.56
32083;BME280;18597;48.328;7.932;2023-03-18T07:17:49;99183.34;;;29.61;24.01
32083;BME280;18597;48.328;7.932;2023-03-18T07:20:16;99179.41;;;31.12;21.69
32083;BME280;18597;48.328;7.932;2023-03-18T07:22:44;99183.81;;;31.13;21.72
32083;BME280;18597;48.328;7.932;2023-03-18T07:25:11;99190.97;;;31.50;22.05
32083;BME280;18597;48.328;7.932;2023-03-18T07:27:38;99191.19;;;32.49;21.16
32083;BME280;18597;48.328;7.932;2023-03-18T07:30:05;99179.88;;;31.70;20.85
32083;BME280;18597;48.328;7.932;2023-03-18T07:32:34;99178.31;;;31.34;19.62
32083;BME280;18597;48.328;7.932;2023-03-18T07:35:02;99177.44;;;30.67;21.24
32083;BME280;18597;48.328;7.932;2023-03-18T07:37:29;99182.91;;;29.79;21.57
32083;BME280;18597;48.328;7.932;2023-03-18T07:39:55;99181.63;;;30.95;22.22
32083;BME280;18597;48.328;7.932;2023-03-18T07:42:21;99192.38;;;32.38;21.25
32083;BME280;18597;48.328;7.932;2023-03-18T07:44:47;99184.72;;;33.42;19.13
32083;BME280;18597;48.328;7.932;2023-03-18T07:47:13;99179.22;;;33.90;18.89
32083;BME280;18597;48.328;7.932;2023-03-18T07:49:40;99175.97;;;34.49;17.33
32083;BME280;18597;48.328;7.932;2023-03-18T07:52:07;99176.69;;;35.12;18.09
32083;BME280;18597;48.328;7.932;2023-03-18T07:54:33;99172.63;;;35.83;16.69
32083;BME280;18597;48.328;7.932;2023-03-18T07:56:59;99170.09;;;36.50;16.39
32083;BME280;18597;48.328;7.932;2023-03-18T07:59:26;99168.47;;;36.72;14.65
32083;BME280;18597;48.328;7.932;2023-03-18T08:01:52;99171.16;;;36.99;15.33
32083;BME280;18597;48.328;7.932;2023-03-18T08:04:17;99169.22;;;37.53;14.17
32083;BME280;18597;48.328;7.932;2023-03-18T08:06:44;99154.53;;;38.10;12.60
32083;BME280;18597;48.328;7.932;2023-03-18T08:09:10;99161.31;;;37.46;12.95
32083;BME280;18597;48.328;7.932;2023-03-18T08:11:36;99152.78;;;37.43;12.66
32083;BME280;18597;48.328;7.932;2023-03-18T08:14:02;99154.88;;;37.37;12.56
32083;BME280;18597;48.328;7.932;2023-03-18T08:16:28;99172.56;;;37.64;13.46
32083;BME280;18597;48.328;7.932;2023-03-18T08:18:54;99174.44;;;37.23;12.31
32083;BME280;18597;48.328;7.932;2023-03-18T08:21:20;99153.47;;;35.35;13.90
32083;BME280;18597;48.328;7.932;2023-03-18T08:23:46;99158.41;;;32.71;14.64
32083;BME280;18597;48.328;7.932;2023-03-18T08:26:12;99154.88;;;28.43;17.79
32083;BME280;18597;48.328;7.932;2023-03-18T08:28:38;99151.91;;;25.76;20.85
32083;BME280;18597;48.328;7.932;2023-03-18T08:31:04;99160.78;;;23.51;23.18
32083;BME280;18597;48.328;7.932;2023-03-18T08:33:30;99165.50;;;21.79;25.09
32083;BME280;18597;48.328;7.932;2023-03-18T08:35:57;99163.72;;;20.47;26.99
32083;BME280;18597;48.328;7.932;2023-03-18T08:38:24;99164.88;;;19.64;27.10
32083;BME280;18597;48.328;7.932;2023-03-18T08:40:50;99163.63;;;18.97;28.85
32083;BME280;18597;48.328;7.932;2023-03-18T08:43:17;99165.81;;;18.44;29.33
32083;BME280;18597;48.328;7.932;2023-03-18T08:45:42;99165.03;;;18.08;30.73
32083;BME280;18597;48.328;7.932;2023-03-18T08:48:09;99170.38;;;17.86;31.93
32083;BME280;18597;48.328;7.932;2023-03-18T08:50:35;99182.41;;;17.54;30.78
32083;BME280;18597;48.328;7.932;2023-03-18T08:53:02;99178.19;;;17.52;31.35
32083;BME280;18597;48.328;7.932;2023-03-18T08:55:32;99174.84;;;17.20;31.55
32083;BME280;18597;48.328;7.932;2023-03-18T08:57:59;99169.06;;;17.38;31.50
32083;BME280;18597;48.328;7.932;2023-03-18T09:00:26;99174.56;;;17.59;31.89
32083;BME280;18597;48.328;7.932;2023-03-18T09:02:53;99169.22;;;17.95;31.00
32083;BME280;18597;48.328;7.932;2023-03-18T09:05:19;99169.22;;;18.32;30.42
32083;BME280;18597;48.328;7.932;2023-03-18T09:07:45;99161.88;;;18.47;30.02
32083;BME280;18597;48.328;7.932;2023-03-18T09:10:13;99168.91;;;18.84;29.67
32083;BME280;18597;48.328;7.932;2023-03-18T09:12:40;99166.13;;;18.99;29.13
32083;BME280;18597;48.328;7.932;2023-03-18T09:15:08;99160.72;;;18.99;29.22
32083;BME280;18597;48.328;7.932;2023-03-18T09:17:36;99160.91;;;18.97;30.04
32083;BME280;18597;48.328;7.932;2023-03-18T09:20:07;99159.41;;;18.95;31.00
32083;BME280;18597;48.328;7.932;2023-03-18T09:22:45;99156.38;;;18.76;29.99
32083;BME280;18597;48.328;7.932;2023-03-18T09:25:11;99154.16;;;17.86;30.41
32083;BME280;18597;48.328;7.932;2023-03-18T09:27:38;99152.50;;;17.56;31.95
32083;BME280;18597;48.328;7.932;2023-03-18T09:30:05;99160.78;;;17.54;32.58
32083;BME280;18597;48.328;7.932;2023-03-18T09:32:31;99159.84;;;17.62;32.34
32083;BME280;18597;48.328;7.932;2023-03-18T09:34:57;99172.41;;;17.69;32.47
32083;BME280;18597;48.328;7.932;2023-03-18T09:37:23;99150.44;;;17.87;31.38
32083;BME280;18597;48.328;7.932;2023-03-18T09:39:49;99153.53;;;18.06;31.07
32083;BME280;18597;48.328;7.932;2023-03-18T09:51:56;99153.84;;;18.32;30.22
32083;BME280;18597;48.328;7.932;2023-03-18T09:54:39;99162.19;;;18.58;29.32
32083;BME280;18597;48.328;7.932;2023-03-18T09:57:27;99158.97;;;18.91;29.45
32083;BME280;18597;48.328;7.932;2023-03-18T10:00:17;99167.94;;;19.20;29.29
32083;BME280;18597;48.328;7.932;2023-03-18T10:02:51;99166.66;;;19.16;29.53
32083;BME280;18597;48.328;7.932;2023-03-18T10:05:30;99152.34;;;19.22;29.35
32083;BME280;18597;48.328;7.932;2023-03-18T10:08:07;99153.16;;;19.22;29.13
32083;BME280;18597;48.328;7.932;2023-03-18T10:10:42;99157.22;;;19.39;28.14
32083;BME280;18597;48.328;7.932;2023-03-18T10:13:34;99145.00;;;19.50;28.90
32083;BME280;18597;48.328;7.932;2023-03-18T10:16:05;99139.03;;;19.61;28.88
32083;BME280;18597;48.328;7.932;2023-03-18T10:18:38;99141.81;;;19.75;29.61
32083;BME280;18597;48.328;7.932;2023-03-18T10:21:49;99143.50;;;19.82;28.74
32083;BME280;18597;48.328;7.932;2023-03-18T10:24:45;99147.22;;;19.40;29.11
32083;BME280;18597;48.328;7.932;2023-03-18T10:33:58;99140.41;;;19.16;29.85
32083;BME280;18597;48.328;7.932;2023-03-18T10:36:22;99129.75;;;19.08;29.72
32083;BME280;18597;48.328;7.932;2023-03-18T10:38:54;99123.28;;;19.09;30.24
32083;BME280;18597;48.328;7.932;2023-03-18T10:41:29;99127.72;;;18.89;29.73
32083;BME280;18597;48.328;7.932;2023-03-18T10:43:56;99120.16;;;18.77;30.21
32083;BME280;18597;48.328;7.932;2023-03-18T10:46:26;99121.63;;;18.58;31.93
32083;BME280;18597;48.328;7.932;2023-03-18T10:49:04;99121.66;;;18.37;31.09
32083;BME280;18597;48.328;7.932;2023-03-18T10:54:39;99121.00;;;18.35;31.83
32083;BME280;18597;48.328;7.932;2023-03-18T10:57:05;99110.00;;;18.37;31.60
32083;BME280;18597;48.328;7.932;2023-03-18T10:59:32;99105.00;;;18.62;32.11
32083;BME280;18597;48.328;7.932;2023-03-18T11:02:10;99102.78;;;18.93;30.93
32083;BME280;18597;48.328;7.932;2023-03-18T11:04:49;99106.72;;;19.25;29.79
32083;BME280;18597;48.328;7.932;2023-03-18T11:07:22;99109.72;;;19.37;28.60
32083;BME280;18597;48.328;7.932;2023-03-18T11:09:51;99110.97;;;19.41;29.66
32083;BME280;18597;48.328;7.932;2023-03-18T11:12:25;99090.25;;;19.27;27.98
32083;BME280;18597;48.328;7.932;2023-03-18T11:14:51;99097.34;;;19.21;28.25
32083;BME280;18597;48.328;7.932;2023-03-18T11:17:26;99090.53;;;19.04;27.82
32083;BME280;18597;48.328;7.932;2023-03-18T11:20:22;99092.84;;;19.00;28.17
32083;BME280;18597;48.328;7.932;2023-03-18T11:22:52;99092.84;;;19.00;28.23
32083;BME280;18597;48.328;7.932;2023-03-18T11:25:22;99089.91;;;19.02;27.48
32083;BME280;18597;48.328;7.932;2023-03-18T11:27:59;99093.34;;;18.82;27.25
32083;BME280;18597;48.328;7.932;2023-03-18T11:30:33;99094.59;;;18.37;27.26
32083;BME280;18597;48.328;7.932;2023-03-18T11:33:13;99095.53;;;18.51;28.24
32083;BME280;18597;48.328;7.932;2023-03-18T11:35:47;99088.28;;;18.51;27.45
32083;BME280;18597;48.328;7.932;2023-03-18T11:38:26;99088.63;;;18.91;27.66
32083;BME280;18597;48.328;7.932;2023-03-18T11:41:08;99084.72;;;19.35;27.40
32083;BME280;18597;48.328;7.932;2023-03-18T11:43:36;99079.50;;;19.81;27.54
32083;BME280;18597;48.328;7.932;2023-03-18T11:46:07;99088.56;;;20.35;27.19
32083;BME280;18597;48.328;7.932;2023-03-18T11:48:41;99080.47;;;20.74;27.13
32083;BME280;18597;48.328;7.932;2023-03-18T12:00:31;99071.41;;;21.14;26.81
32083;BME280;18597;48.328;7.932;2023-03-18T12:06:27;99062.22;;;21.15;27.03
32083;BME280;18597;48.328;7.932;2023-03-18T12:09:23;99061.38;;;21.14;26.48
32083;BME280;18597;48.328;7.932;2023-03-18T12:12:39;99049.06;;;21.05;27.16
32083;BME280;18597;48.328;7.932;2023-03-18T12:15:42;99066.25;;;20.79;27.00
32083;BME280;18597;48.328;7.932;2023-03-18T12:18:35;99064.38;;;20.66;27.50
32083;BME280;18597;48.328;7.932;2023-03-18T12:25:19;99055.78;;;20.96;26.69
32083;BME280;18597;48.328;7.932;2023-03-18T12:33:53;99062.41;;;21.26;26.31
32083;BME280;18597;48.328;7.932;2023-03-18T12:37:06;99053.25;;;21.08;27.55
32083;BME280;18597;48.328;7.932;2023-03-18T12:40:02;99055.41;;;20.72;27.49
32083;BME280;18597;48.328;7.932;2023-03-18T12:45:19;99050.19;;;20.64;27.57
32083;BME280;18597;48.328;7.932;2023-03-18T12:47:56;99043.50;;;20.80;28.47
32083;BME280;18597;48.328;7.932;2023-03-18T12:50:30;99044.94;;;20.76;27.23
32083;BME280;18597;48.328;7.932;2023-03-18T12:53:33;99043.91;;;20.70;27.30
32083;BME280;18597;48.328;7.932;2023-03-18T12:56:13;99041.41;;;20.75;27.08
32083;BME280;18597;48.328;7.932;2023-03-18T12:58:51;99038.31;;;20.52;27.67
32083;BME280;18597;48.328;7.932;2023-03-18T13:01:43;99032.66;;;20.34;27.70
32083;BME280;18597;48.328;7.932;2023-03-18T13:04:18;99031.97;;;19.92;28.01
32083;BME280;18597;48.328;7.932;2023-03-18T13:07:02;99024.66;;;19.73;28.54
32083;BME280;18597;48.328;7.932;2023-03-18T13:09:43;99025.66;;;19.72;28.29
32083;BME280;18597;48.328;7.932;2023-03-18T13:12:36;99031.13;;;19.91;28.73
32083;BME280;18597;48.328;7.932;2023-03-18T13:15:29;99026.97;;;20.09;28.32
32083;BME280;18597;48.328;7.932;2023-03-18T13:18:03;99033.47;;;20.21;28.26
32083;BME280;18597;48.328;7.932;2023-03-18T13:20:35;99037.03;;;20.35;28.46
32083;BME280;18597;48.328;7.932;2023-03-18T13:23:35;99034.53;;;20.53;28.10
32083;BME280;18597;48.328;7.932;2023-03-18T13:26:19;99034.09;;;20.63;27.74
32083;BME280;18597;48.328;7.932;2023-03-18T13:29:33;99037.03;;;20.61;26.89
32083;BME280;18597;48.328;7.932;2023-03-18T13:32:46;99035.13;;;20.95;27.11
32083;BME280;18597;48.328;7.932;2023-03-18T13:42:02;99021.03;;;21.24;26.44
32083;BME280;18597;48.328;7.932;2023-03-18T13:44:43;99025.19;;;21.33;27.09
32083;BME280;18597;48.328;7.932;2023-03-18T13:47:19;99028.56;;;21.29;26.72
32083;BME280;18597;48.328;7.932;2023-03-18T13:49:47;99020.19;;;21.24;26.94
32083;BME280;18597;48.328;7.932;2023-03-18T13:52:41;99033.16;;;21.15;25.94
32083;BME280;18597;48.328;7.932;2023-03-18T13:55:45;99017.09;;;21.14;26.54
32083;BME280;18597;48.328;7.932;2023-03-18T13:58:35;99008.28;;;21.31;26.31
32083;BME280;18597;48.328;7.932;2023-03-18T14:01:14;99014.41;;;21.58;26.89
32083;BME280;18597;48.328;7.932;2023-03-18T14:03:55;99012.66;;;21.77;26.22
32083;BME280;18597;48.328;7.932;2023-03-18T14:06:44;99013.81;;;21.88;26.05
32083;BME280;18597;48.328;7.932;2023-03-18T14:09:32;99007.03;;;21.72;26.25
32083;BME280;18597;48.328;7.932;2023-03-18T14:15:40;99006.47;;;21.57;26.10
32083;BME280;18597;48.328;7.932;2023-03-18T14:18:24;99007.16;;;21.46;25.97
32083;BME280;18597;48.328;7.932;2023-03-18T14:20:53;98993.22;;;21.22;25.77